createdAt,value
2018-11-22T12:16:43.115Z,24.40
2018-11-22T12:19:18.348Z,23.10
2018-11-22T12:21:53.609Z,23.40
2018-11-22T12:24:28.748Z,22.97
2018-11-22T12:27:03.632Z,24.77
2018-11-22T12:29:38.590Z,24.93
2018-11-22T12:32:18.852Z,23.90
2018-11-22T12:34:59.087Z,22.50
2018-11-22T12:37:43.210Z,24.73
2018-11-22T12:40:12.877Z,23.97
2018-11-22T12:42:48.111Z,24.23
2018-11-22T12:45:23.639Z,25.00
2018-11-22T12:47:58.918Z,23.47
2018-11-22T12:50:33.647Z,23.60
2018-11-22T12:53:08.824Z,22.97
2018-11-22T12:55:43.864Z,21.97
2018-11-22T12:58:19.087Z,24.67
2018-11-22T13:00:54.140Z,23.47
2018-11-22T13:03:29.572Z,23.23
2018-11-22T13:06:04.422Z,23.07
2018-11-22T13:08:39.241Z,24.53
2018-11-22T13:11:14.583Z,24.73
2018-11-22T13:13:49.682Z,23.73
2018-11-22T13:16:24.912Z,25.10
2018-11-22T13:19:00.115Z,24.23
2018-11-22T13:21:35.287Z,24.80
2018-11-22T13:24:10.295Z,24.23
2018-11-22T13:26:45.230Z,24.23
2018-11-22T13:29:20.206Z,24.37
2018-11-22T13:31:54.963Z,24.10
2018-11-22T13:34:30.204Z,24.33
2018-11-22T13:37:05.355Z,24.07
2018-11-22T13:39:40.471Z,23.57
2018-11-22T13:42:15.480Z,24.20
2018-11-22T13:44:50.449Z,23.17
2018-11-22T13:47:26.290Z,23.50
2018-11-22T13:50:01.584Z,23.33
2018-11-22T13:52:37.253Z,23.20
2018-11-22T13:55:12.190Z,23.80
2018-11-22T13:57:47.274Z,22.63
2018-11-22T14:00:23.831Z,24.03
2018-11-22T14:03:05.311Z,23.27
2018-11-22T14:05:40.338Z,23.27
2018-11-22T14:08:15.317Z,23.60
2018-11-22T14:10:50.667Z,23.23
2018-11-22T14:13:25.968Z,23.00
2018-11-22T14:16:01.121Z,22.00
2018-11-22T14:18:35.997Z,24.40
2018-11-22T14:21:10.865Z,23.43
2018-11-22T14:23:46.070Z,22.67
2018-11-22T14:26:21.574Z,22.83
2018-11-22T14:28:56.677Z,22.13
2018-11-22T14:31:31.943Z,22.40
2018-11-22T14:34:08.349Z,22.70
2018-11-22T14:36:43.345Z,22.33
2018-11-22T14:39:18.560Z,23.23
2018-11-22T14:41:53.737Z,22.20
2018-11-22T14:44:28.840Z,21.57
2018-11-22T14:47:04.072Z,21.67
2018-11-22T14:49:39.155Z,22.73
2018-11-22T14:52:14.959Z,22.00
2018-11-22T14:54:50.308Z,23.17
2018-11-22T14:57:25.462Z,21.90
2018-11-22T15:00:01.574Z,22.60
2018-11-22T15:02:36.784Z,20.40
2018-11-22T15:05:12.754Z,21.73
2018-11-22T15:07:47.822Z,20.50
2018-11-22T15:10:23.583Z,22.40
2018-11-22T15:12:53.025Z,21.83
2018-11-22T15:15:28.942Z,21.03
2018-11-22T15:18:04.063Z,20.00
2018-11-22T15:20:39.612Z,21.57
2018-11-22T15:23:14.742Z,21.03
2018-11-22T15:25:49.747Z,21.23
2018-11-22T15:28:24.933Z,22.23
2018-11-22T15:31:00.053Z,20.87
2018-11-22T15:33:35.692Z,21.40
2018-11-22T15:36:10.731Z,21.40
2018-11-22T15:38:45.589Z,21.23
2018-11-22T15:41:21.066Z,23.17
2018-11-22T15:43:56.021Z,21.90
2018-11-22T15:46:31.430Z,21.10
2018-11-22T15:49:06.883Z,19.80
2018-11-22T15:51:42.288Z,20.07
2018-11-22T15:54:17.175Z,21.63
2018-11-22T15:56:52.143Z,21.13
2018-11-22T15:59:27.078Z,21.53
2018-11-22T16:02:02.862Z,22.17
2018-11-22T16:04:37.842Z,22.47
2018-11-22T16:07:12.739Z,21.80
2018-11-22T16:09:48.050Z,20.87
2018-11-22T16:12:23.112Z,20.70
2018-11-22T16:14:58.158Z,20.50
2018-11-22T16:17:33.324Z,19.77
2018-11-22T16:20:08.659Z,20.40
2018-11-22T16:22:43.430Z,21.30
2018-11-22T16:25:18.586Z,18.17
2018-11-22T16:27:53.712Z,19.47
2018-11-22T16:30:30.082Z,19.57
2018-11-22T16:33:05.062Z,20.63
2018-11-22T16:35:39.999Z,20.07
2018-11-22T16:38:14.931Z,21.10
2018-11-22T16:40:50.001Z,20.27
2018-11-22T16:43:26.063Z,22.67
2018-11-22T16:46:00.943Z,20.23
2018-11-22T16:48:36.140Z,19.60
2018-11-22T16:51:11.361Z,20.47
2018-11-22T16:53:47.119Z,19.60
2018-11-22T16:56:16.769Z,20.80
2018-11-22T16:58:51.387Z,19.60
2018-11-22T17:01:27.754Z,20.90
2018-11-22T17:04:01.733Z,20.27
2018-11-22T17:06:36.615Z,20.20
2018-11-22T17:09:11.473Z,19.80
2018-11-22T17:11:46.481Z,20.47
2018-11-22T17:14:21.536Z,20.33
2018-11-22T17:16:56.764Z,19.50
2018-11-22T17:19:31.724Z,19.50
2018-11-22T17:22:06.653Z,19.33
2018-11-22T17:24:41.524Z,20.30
2018-11-22T17:27:16.486Z,21.00
2018-11-22T17:29:51.651Z,22.20
2018-11-22T17:32:26.538Z,20.10
2018-11-22T17:35:01.606Z,20.80
2018-11-22T17:37:37.698Z,21.67
2018-11-22T17:40:15.655Z,20.50
2018-11-22T17:42:51.584Z,20.93
2018-11-22T17:45:29.918Z,20.90
2018-11-22T17:48:05.904Z,20.57
2018-11-22T17:50:37.718Z,20.43
2018-11-22T17:53:13.603Z,21.00
2018-11-22T17:55:48.517Z,22.10
2018-11-22T17:58:23.563Z,21.50
2018-11-22T18:00:58.629Z,21.33
2018-11-22T18:03:33.983Z,21.97
2018-11-22T18:06:09.564Z,21.83
2018-11-22T18:08:44.609Z,21.07
2018-11-22T18:11:20.128Z,19.90
2018-11-22T18:13:55.108Z,22.13
2018-11-22T18:16:30.175Z,21.87
2018-11-22T18:19:07.133Z,21.83
2018-11-22T18:21:42.205Z,21.37
2018-11-22T18:24:17.256Z,22.23
2018-11-22T18:26:52.513Z,23.07
2018-11-22T18:29:27.568Z,22.63
2018-11-22T18:32:02.626Z,23.17
2018-11-22T18:34:38.518Z,22.83
2018-11-22T18:37:13.659Z,22.17
2018-11-22T18:39:49.202Z,21.77
2018-11-22T18:42:24.578Z,23.40
2018-11-22T18:44:59.548Z,22.30
2018-11-22T18:47:34.552Z,22.80
2018-11-22T18:50:15.672Z,22.23
2018-11-22T18:52:49.409Z,20.70
2018-11-22T18:55:24.401Z,22.00
2018-11-22T18:57:59.548Z,23.37
2018-11-22T19:00:36.100Z,21.13
2018-11-22T19:03:12.741Z,22.77
2018-11-22T19:05:47.643Z,22.93
2018-11-22T19:08:23.688Z,24.37
2018-11-22T19:10:57.944Z,22.47
2018-11-22T19:13:27.350Z,22.83
2018-11-22T19:15:56.746Z,22.77
2018-11-22T19:18:26.067Z,22.37
2018-11-22T19:20:55.569Z,22.60
2018-11-22T19:23:25.207Z,24.00
2018-11-22T19:25:54.819Z,24.03
2018-11-22T19:28:24.346Z,22.50
2018-11-22T19:30:54.003Z,22.90
2018-11-22T19:33:23.614Z,22.87
2018-11-22T19:35:54.293Z,24.93
2018-11-22T19:38:23.758Z,24.07
2018-11-22T19:40:53.308Z,23.90
2018-11-22T19:43:23.263Z,24.53
2018-11-22T19:45:52.827Z,22.93
2018-11-22T19:48:22.438Z,24.00
2018-11-22T19:50:52.151Z,23.37
2018-11-22T19:53:21.560Z,22.80
2018-11-22T19:55:51.270Z,23.03
2018-11-22T19:58:20.988Z,23.50
2018-11-22T20:00:56.131Z,23.30
2018-11-22T20:03:32.121Z,24.80
2018-11-22T20:06:07.443Z,24.87
2018-11-22T20:08:43.218Z,24.40
2018-11-22T20:11:19.483Z,23.57
2018-11-22T20:13:54.793Z,22.57
2018-11-22T20:16:29.924Z,24.50
2018-11-22T20:19:00.759Z,23.40
2018-11-22T20:21:35.983Z,23.23
2018-11-22T20:24:11.318Z,25.43
2018-11-22T20:26:46.624Z,22.77
2018-11-22T20:29:21.684Z,23.23
2018-11-22T20:31:57.370Z,24.20
2018-11-22T20:34:32.575Z,22.73
2018-11-22T20:37:07.865Z,24.50
2018-11-22T20:39:43.073Z,23.07
2018-11-22T20:42:17.948Z,23.40
2018-11-22T20:44:53.343Z,23.10
2018-11-22T20:47:22.761Z,22.93
2018-11-22T20:49:52.057Z,23.70
2018-11-22T20:52:21.575Z,24.70
2018-11-22T20:54:51.050Z,24.40
2018-11-22T20:57:20.757Z,24.00
2018-11-22T20:59:50.344Z,24.63
2018-11-22T21:02:19.806Z,23.63
2018-11-22T21:04:49.313Z,23.50
2018-11-22T21:07:18.668Z,23.30
2018-11-22T21:09:48.323Z,23.63
2018-11-22T21:12:17.796Z,24.70
2018-11-22T21:14:47.766Z,24.40
2018-11-22T21:17:17.634Z,24.37
2018-11-22T21:19:47.287Z,23.83
2018-11-22T21:22:16.982Z,21.20
2018-11-22T21:24:46.300Z,23.20
2018-11-22T21:27:16.015Z,23.73
2018-11-22T21:29:45.450Z,21.30
2018-11-22T21:32:16.268Z,23.73
2018-11-22T21:34:45.773Z,22.67
2018-11-22T21:37:15.523Z,22.77
2018-11-22T21:39:45.367Z,23.77
2018-11-22T21:42:14.907Z,24.07
2018-11-22T21:44:44.289Z,21.00
2018-11-22T21:47:14.147Z,21.93
2018-11-22T21:49:43.854Z,23.20
2018-11-22T21:52:19.158Z,21.50
2018-11-22T21:54:54.344Z,21.80
2018-11-22T21:57:29.467Z,23.17
2018-11-22T22:00:05.657Z,23.40
2018-11-22T22:02:40.890Z,21.40
2018-11-22T22:05:16.109Z,22.80
2018-11-22T22:07:51.197Z,21.87
2018-11-22T22:10:26.540Z,21.57
2018-11-22T22:13:02.274Z,22.30
2018-11-22T22:15:37.951Z,21.00
2018-11-22T22:18:12.906Z,21.27
2018-11-22T22:20:47.960Z,21.60
2018-11-22T22:23:23.082Z,21.20
2018-11-22T22:25:58.065Z,21.27
2018-11-22T22:28:33.125Z,21.43
2018-11-22T22:31:08.292Z,21.50
2018-11-22T22:33:43.241Z,20.07
2018-11-22T22:36:18.352Z,21.00
2018-11-22T22:38:56.303Z,22.50
2018-11-22T22:41:31.193Z,21.80
2018-11-22T22:44:06.438Z,20.53
2018-11-22T22:46:42.107Z,20.87
2018-11-22T22:49:17.227Z,22.40
2018-11-22T22:51:52.503Z,21.20
2018-11-22T22:54:27.652Z,21.83
2018-11-22T22:57:02.842Z,20.60
2018-11-22T22:59:38.711Z,20.37
2018-11-22T23:02:13.984Z,22.00
2018-11-22T23:04:49.200Z,21.23
2018-11-22T23:07:24.469Z,20.30
2018-11-22T23:09:59.458Z,20.90
2018-11-22T23:12:35.448Z,22.50
2018-11-22T23:15:13.521Z,20.63
2018-11-22T23:17:48.894Z,21.27
2018-11-22T23:20:25.627Z,20.50
2018-11-22T23:23:02.035Z,19.47
2018-11-22T23:25:37.589Z,21.77
2018-11-22T23:28:12.539Z,20.90
2018-11-22T23:30:51.920Z,20.60
2018-11-22T23:33:26.955Z,21.07
2018-11-22T23:36:01.970Z,20.70
2018-11-22T23:38:37.368Z,20.60
2018-11-22T23:41:12.206Z,21.17
2018-11-22T23:43:47.449Z,20.80
2018-11-22T23:46:23.090Z,20.40
2018-11-22T23:48:58.469Z,20.50
2018-11-22T23:51:33.754Z,22.03
2018-11-22T23:54:08.633Z,21.70
2018-11-22T23:56:43.552Z,19.20
2018-11-22T23:59:18.646Z,21.50
